Time;durP1;ratioP1;P1;durP2;ratioP2;P2;SDS_P1;SDS_P2;PMS_P1;PMS_P2;Temp;Humidity;BMP_temperature;BMP_pressure;BME280_temperature;BME280_humidity;BME280_pressure;Samples;Min_cycle;Max_cycle;Signal;HPM_P1;HPM_P2
2022/11/11 00:01:16;;;;;;;10.52;5.20;;;9.60;99.90;;;;;;5032440;28;20057;-81
2022/11/11 00:03:42;;;;;;;9.25;5.03;;;9.60;99.90;;;;;;5032370;28;20408;-81
2022/11/11 00:06:11;;;;;;;8.82;5.28;;;9.60;99.90;;;;;;5023245;28;20024;-80
2022/11/11 00:08:36;;;;;;;8.63;5.28;;;9.60;99.90;;;;;;5032007;28;20041;-82
2022/11/11 00:11:05;;;;;;;10.70;4.85;;;9.50;99.90;;;;;;5027505;28;20049;-82
2022/11/11 00:13:31;;;;;;;8.10;4.65;;;9.50;99.90;;;;;;5007314;28;20493;-81
2022/11/11 00:16:04;;;;;;;9.30;5.22;;;9.50;99.90;;;;;;4995899;28;20386;-82
2022/11/11 00:26:36;;;;;;;9.73;5.43;;;9.50;99.90;;;;;;4999088;28;20099;-82
2022/11/11 00:29:03;;;;;;;11.05;5.90;;;9.50;99.90;;;;;;4992902;28;20109;-82
2022/11/11 00:31:30;;;;;;;7.65;5.75;;;9.60;99.90;;;;;;5012356;28;20084;-81
2022/11/11 00:33:55;;;;;;;9.95;6.10;;;9.70;99.90;;;;;;4992591;28;20474;-81
2022/11/11 00:36:21;;;;;;;9.95;5.40;;;9.80;99.90;;;;;;4990875;28;20018;-81
2022/11/11 00:38:48;;;;;;;11.77;6.95;;;9.90;99.90;;;;;;4990777;28;20034;-82
2022/11/11 00:41:26;;;;;;;12.20;7.97;;;9.90;99.90;;;;;;4985224;28;20389;-80
2022/11/11 00:43:51;;;;;;;11.05;7.68;;;10.00;99.90;;;;;;5010621;28;20104;-79
2022/11/11 00:51:46;;;;;;;13.57;8.20;;;10.10;99.90;;;;;;5007195;28;20554;-81
2022/11/11 00:54:14;;;;;;;10.68;7.70;;;10.10;99.90;;;;;;4993050;28;20121;-82
2022/11/11 00:56:40;;;;;;;12.45;8.98;;;10.10;99.90;;;;;;5012047;28;20093;-81
2022/11/11 00:59:07;;;;;;;10.05;7.30;;;10.10;99.90;;;;;;4987724;28;20117;-79
2022/11/11 01:01:36;;;;;;;10.07;7.70;;;10.10;99.90;;;;;;5010293;28;20048;-82
2022/11/11 01:04:02;;;;;;;11.30;7.53;;;10.20;99.90;;;;;;4995513;28;20026;-83
2022/11/11 01:06:27;;;;;;;12.27;6.95;;;10.20;99.90;;;;;;5006785;28;20021;-80
2022/11/11 01:08:53;;;;;;;10.85;7.80;;;10.20;99.90;;;;;;5011420;28;20045;-81
2022/11/11 01:11:21;;;;;;;11.05;8.30;;;10.20;99.90;;;;;;4995695;28;20032;-80
2022/11/11 01:13:47;;;;;;;10.57;7.95;;;10.20;99.90;;;;;;4998294;28;20045;-80
2022/11/11 01:16:22;;;;;;;12.73;8.27;;;10.20;99.90;;;;;;5008036;28;20110;-80
2022/11/11 01:18:48;;;;;;;13.38;8.95;;;10.20;99.90;;;;;;5013672;28;20476;-80
2022/11/11 01:21:14;;;;;;;12.63;8.68;;;10.20;99.90;;;;;;5011876;28;20137;-80
2022/11/11 01:23:41;;;;;;;10.60;7.55;;;10.20;99.90;;;;;;5028839;28;20474;-80
2022/11/11 01:26:20;;;;;;;11.32;8.27;;;10.20;99.90;;;;;;5008569;28;20021;-81
2022/11/11 01:28:51;;;;;;;11.82;8.15;;;10.20;99.90;;;;;;5008615;28;20457;-80
2022/11/11 01:31:18;;;;;;;12.40;9.38;;;10.20;99.90;;;;;;5005719;28;20082;-80
2022/11/11 01:33:44;;;;;;;11.40;9.13;;;10.20;99.90;;;;;;5024597;28;20116;-80
2022/11/11 01:36:20;;;;;;;12.50;8.88;;;10.20;99.90;;;;;;5017526;28;20526;-80
2022/11/11 01:38:58;;;;;;;12.15;9.20;;;10.20;99.90;;;;;;4990431;28;20060;-80
2022/11/11 01:41:38;;;;;;;13.57;9.88;;;10.30;99.90;;;;;;4996452;28;20030;-81
2022/11/11 01:44:09;;;;;;;12.48;9.07;;;10.20;99.90;;;;;;5004963;28;20067;-81
2022/11/11 01:46:56;;;;;;;13.25;9.68;;;10.30;99.90;;;;;;5015686;28;20112;-80
2022/11/11 01:49:40;;;;;;;11.93;9.60;;;10.30;99.90;;;;;;5012608;28;20025;-80
2022/11/11 01:52:15;;;;;;;15.32;9.80;;;10.30;99.90;;;;;;5015560;28;20033;-80
2022/11/11 01:55:00;;;;;;;11.50;7.45;;;10.30;99.90;;;;;;5032535;28;20057;-81
2022/11/11 01:57:47;;;;;;;13.93;9.20;;;10.30;99.90;;;;;;5000627;28;20033;-80
2022/11/11 02:00:16;;;;;;;15.65;10.85;;;10.30;99.90;;;;;;4998635;28;20022;-80
2022/11/11 02:03:08;;;;;;;16.27;10.13;;;10.40;99.90;;;;;;5013871;28;20417;-80
2022/11/11 02:05:46;;;;;;;14.27;10.70;;;10.30;99.90;;;;;;5021298;28;20423;-80
2022/11/11 02:08:31;;;;;;;12.70;9.95;;;10.40;99.90;;;;;;5028266;28;20547;-80
2022/11/11 02:11:01;;;;;;;15.98;10.80;;;10.40;99.90;;;;;;5015134;28;20021;-80
2022/11/11 02:16:13;;;;;;;16.45;11.57;;;10.40;99.90;;;;;;5033171;28;20044;-81
2022/11/11 02:18:40;;;;;;;16.42;11.75;;;10.40;99.90;;;;;;5015298;28;20445;-81
2022/11/11 02:21:06;;;;;;;17.90;11.95;;;10.40;99.90;;;;;;5015001;28;20025;-80
2022/11/11 02:23:41;;;;;;;14.18;11.15;;;10.40;99.90;;;;;;5002239;28;20017;-81
2022/11/11 02:26:08;;;;;;;17.73;10.73;;;10.50;99.90;;;;;;5004305;28;20026;-82
2022/11/11 02:28:36;;;;;;;16.35;11.57;;;10.50;99.90;;;;;;5013448;28;20388;-81
2022/11/11 02:31:02;;;;;;;13.73;10.68;;;10.50;99.90;;;;;;5014343;28;20025;-81
2022/11/11 02:33:27;;;;;;;17.23;11.68;;;10.40;99.90;;;;;;5002171;28;20108;-81
2022/11/11 02:35:57;;;;;;;16.67;12.77;;;10.50;99.90;;;;;;5032433;28;20124;-81
2022/11/11 02:38:26;;;;;;;14.82;11.13;;;10.40;99.90;;;;;;5015024;28;20376;-83
2022/11/11 02:43:36;;;;;;;15.98;12.60;;;10.50;99.90;;;;;;5020518;28;20079;-81
2022/11/11 02:46:04;;;;;;;15.68;11.85;;;10.50;99.90;;;;;;5005577;28;20049;-81
2022/11/11 02:48:30;;;;;;;18.15;11.50;;;10.50;99.90;;;;;;5019190;28;20021;-81
2022/11/11 02:50:56;;;;;;;20.58;12.55;;;10.50;99.90;;;;;;5005027;28;20032;-81
2022/11/11 02:53:22;;;;;;;15.70;11.27;;;10.50;99.90;;;;;;5006599;28;20116;-81
2022/11/11 02:55:47;;;;;;;13.32;10.38;;;10.50;99.90;;;;;;5018043;28;20026;-81
2022/11/11 02:58:15;;;;;;;14.70;10.63;;;10.50;99.90;;;;;;4999450;28;20109;-81
2022/11/11 03:00:41;;;;;;;14.73;10.00;;;10.50;99.90;;;;;;5030355;28;20029;-81
2022/11/11 03:03:08;;;;;;;12.60;10.05;;;10.50;99.90;;;;;;4990774;28;20033;-81
2022/11/11 03:05:34;;;;;;;11.95;9.18;;;10.50;99.90;;;;;;5005364;28;20026;-81
2022/11/11 03:08:00;;;;;;;15.32;10.88;;;10.60;99.90;;;;;;5018395;28;20029;-80
2022/11/11 03:10:26;;;;;;;16.88;12.48;;;10.60;99.90;;;;;;5017652;28;20026;-81
2022/11/11 03:12:52;;;;;;;15.90;11.63;;;10.60;99.90;;;;;;5006455;28;20034;-81
2022/11/11 03:15:18;;;;;;;16.20;11.10;;;10.60;99.90;;;;;;5023973;28;20050;-81
2022/11/11 03:17:44;;;;;;;15.43;11.23;;;10.60;99.90;;;;;;5018822;28;20449;-81
2022/11/11 03:23:11;;;;;;;15.00;10.10;;;10.60;99.90;;;;;;5036339;28;20048;-81
2022/11/11 03:25:38;;;;;;;13.77;10.45;;;10.60;99.90;;;;;;5012163;28;20022;-81
2022/11/11 03:28:13;;;;;;;15.15;9.68;;;10.60;99.90;;;;;;5000256;28;20104;-81
2022/11/11 03:30:49;;;;;;;15.95;11.60;;;10.60;99.90;;;;;;5005397;28;20029;-82
2022/11/11 03:33:16;;;;;;;15.85;11.10;;;10.50;99.90;;;;;;5005539;28;20034;-81
2022/11/11 03:35:42;;;;;;;13.57;10.15;;;10.50;99.90;;;;;;5035901;28;20040;-81
2022/11/11 03:38:23;;;;;;;13.05;9.52;;;10.50;99.90;;;;;;5017039;28;20056;-81
2022/11/11 03:40:55;;;;;;;16.00;10.40;;;10.50;99.90;;;;;;5008675;28;20136;-81
2022/11/11 03:43:24;;;;;;;14.32;10.25;;;10.50;99.90;;;;;;5000054;28;20049;-81
2022/11/11 03:45:52;;;;;;;11.63;9.18;;;10.50;99.90;;;;;;5010713;28;20112;-81
2022/11/11 03:48:18;;;;;;;10.60;8.63;;;10.50;99.90;;;;;;5017681;28;20022;-81
2022/11/11 03:50:46;;;;;;;13.32;9.77;;;10.50;99.90;;;;;;5005640;28;20049;-81
2022/11/11 03:53:13;;;;;;;11.35;8.02;;;10.40;99.90;;;;;;5004418;28;20377;-81
2022/11/11 03:55:40;;;;;;;11.98;8.75;;;10.50;99.90;;;;;;5017146;28;20021;-81
2022/11/11 03:58:06;;;;;;;11.10;8.05;;;10.40;99.90;;;;;;4998914;28;20025;-81
2022/11/11 04:00:32;;;;;;;12.88;8.48;;;10.40;99.90;;;;;;5010803;28;20033;-83
2022/11/11 04:11:33;;;;;;;15.88;10.90;;;10.40;99.90;;;;;;5025314;28;20130;-80
2022/11/11 04:16:46;;;;;;;13.57;9.70;;;10.40;99.90;;;;;;5015811;28;19912;-81
2022/11/11 04:21:55;;;;;;;16.35;11.43;;;10.40;99.90;;;;;;5020308;28;20048;-81
2022/11/11 04:27:08;;;;;;;16.08;10.70;;;10.40;99.90;;;;;;5028954;28;20072;-80
2022/11/11 04:29:34;;;;;;;15.23;10.40;;;10.40;99.90;;;;;;4997970;28;20080;-80
2022/11/11 04:34:52;;;;;;;13.43;9.23;;;10.40;99.90;;;;;;5034707;28;20053;-80
2022/11/11 04:37:19;;;;;;;13.68;10.40;;;10.40;99.90;;;;;;5017295;28;20039;-80
2022/11/11 04:42:30;;;;;;;12.63;8.40;;;10.40;99.90;;;;;;5023842;28;20049;-80
2022/11/11 04:48:06;;;;;;;11.60;7.15;;;10.40;99.90;;;;;;5034060;28;20492;-81
2022/11/11 04:50:34;;;;;;;10.55;7.47;;;10.50;99.90;;;;;;5016755;28;20045;-82
2022/11/11 04:53:01;;;;;;;12.88;9.23;;;10.40;99.90;;;;;;5011899;28;20083;-80
2022/11/11 04:58:12;;;;;;;14.27;10.32;;;10.40;99.90;;;;;;5014810;28;20041;-80
2022/11/11 05:00:37;;;;;;;13.88;9.38;;;10.40;99.90;;;;;;4998006;28;20022;-81
2022/11/11 05:03:15;;;;;;;13.15;8.57;;;10.40;99.90;;;;;;5027248;28;20125;-80
2022/11/11 05:09:00;;;;;;;12.77;9.38;;;10.40;99.90;;;;;;5015287;28;20048;-80
2022/11/11 05:11:34;;;;;;;12.88;8.88;;;10.30;99.90;;;;;;5014915;28;20020;-81
2022/11/11 05:22:30;;;;;;;12.13;9.25;;;10.30;99.90;;;;;;5021502;28;20137;-80
2022/11/11 05:27:40;;;;;;;12.85;8.82;;;10.30;99.90;;;;;;5024757;28;20453;-80
2022/11/11 05:30:08;;;;;;;11.57;8.27;;;10.30;99.90;;;;;;5033399;28;20032;-81
2022/11/11 05:32:34;;;;;;;12.02;8.65;;;10.30;99.90;;;;;;5023774;28;20049;-80
2022/11/11 05:35:00;;;;;;;13.32;8.98;;;10.30;99.90;;;;;;5015976;28;20454;-80
2022/11/11 05:37:26;;;;;;;10.40;7.75;;;10.30;99.90;;;;;;5014905;28;20029;-80
2022/11/11 05:39:51;;;;;;;14.23;9.45;;;10.30;99.90;;;;;;5018269;28;20105;-80
2022/11/11 05:42:17;;;;;;;14.27;9.32;;;10.30;99.90;;;;;;5043748;28;20022;-80
2022/11/11 05:44:43;;;;;;;14.20;8.90;;;10.20;99.90;;;;;;5029098;28;20373;-80
2022/11/11 05:47:09;;;;;;;11.90;8.60;;;10.20;99.90;;;;;;5023157;28;20026;-80
2022/11/11 05:49:34;;;;;;;12.65;8.80;;;10.20;99.90;;;;;;5031816;28;20046;-80
2022/11/11 05:52:00;;;;;;;13.23;9.18;;;10.20;99.90;;;;;;5033409;28;20033;-80
2022/11/11 05:54:26;;;;;;;14.38;8.85;;;10.20;99.90;;;;;;5033291;28;20029;-80
2022/11/11 05:56:52;;;;;;;15.65;10.23;;;10.20;99.90;;;;;;5031770;28;20025;-82
2022/11/11 05:59:18;;;;;;;16.17;9.85;;;10.20;99.90;;;;;;5032134;28;20024;-80
2022/11/11 06:01:44;;;;;;;15.80;10.48;;;10.10;99.90;;;;;;5032045;28;20032;-80
2022/11/11 06:04:10;;;;;;;14.82;9.55;;;10.10;99.90;;;;;;5020583;28;20101;-81
2022/11/11 06:06:36;;;;;;;15.55;11.00;;;10.10;99.90;;;;;;5022450;28;20108;-80
2022/11/11 06:09:03;;;;;;;14.48;11.25;;;10.10;99.90;;;;;;5015764;28;20017;-80
2022/11/11 06:11:29;;;;;;;16.17;11.40;;;10.10;99.90;;;;;;5023744;28;20030;-80
2022/11/11 06:13:55;;;;;;;13.90;9.50;;;10.10;99.90;;;;;;5013844;28;20065;-82
2022/11/11 06:16:21;;;;;;;17.90;11.15;;;10.00;99.90;;;;;;5022192;28;20028;-80
2022/11/11 06:18:55;;;;;;;13.23;9.43;;;10.10;99.90;;;;;;5030105;28;20017;-80
2022/11/11 06:21:21;;;;;;;15.20;10.48;;;10.00;99.90;;;;;;5023303;28;20076;-80
2022/11/11 06:23:47;;;;;;;14.02;9.88;;;10.00;99.90;;;;;;5017986;28;20458;-80
2022/11/11 06:26:13;;;;;;;14.40;9.57;;;10.00;99.90;;;;;;5021820;28;20034;-80
2022/11/11 06:28:38;;;;;;;15.80;10.68;;;10.00;99.90;;;;;;5013172;28;20018;-80
2022/11/11 06:31:06;;;;;;;15.57;10.13;;;10.00;99.90;;;;;;5023145;28;20087;-80
2022/11/11 06:33:34;;;;;;;17.85;11.82;;;10.00;99.90;;;;;;5027938;28;20025;-80
2022/11/11 06:35:59;;;;;;;14.00;10.50;;;9.90;99.90;;;;;;5023803;28;20381;-81
2022/11/11 06:38:25;;;;;;;14.23;10.80;;;9.90;99.90;;;;;;5028053;28;20029;-79
2022/11/11 06:40:51;;;;;;;13.77;9.88;;;9.90;99.90;;;;;;5014778;28;20410;-80
2022/11/11 06:43:16;;;;;;;13.93;9.93;;;9.90;99.90;;;;;;5024352;28;20382;-80
2022/11/11 06:45:50;;;;;;;18.33;10.60;;;9.90;99.90;;;;;;5012781;28;20040;-80
2022/11/11 06:48:17;;;;;;;16.02;10.98;;;9.90;99.90;;;;;;5012132;28;20061;-80
2022/11/11 06:50:43;;;;;;;17.50;11.73;;;9.80;99.90;;;;;;5023698;28;20013;-80
2022/11/11 06:53:11;;;;;;;15.68;10.32;;;9.80;99.90;;;;;;5032449;28;20035;-80
2022/11/11 06:55:37;;;;;;;12.43;9.27;;;9.80;99.90;;;;;;5031076;28;20033;-80
2022/11/11 06:58:17;;;;;;;16.00;11.60;;;9.80;99.90;;;;;;5032077;28;20022;-79
2022/11/11 07:00:45;;;;;;;16.42;12.10;;;9.80;99.90;;;;;;5030834;28;20037;-81
2022/11/11 07:03:14;;;;;;;17.02;11.88;;;9.80;99.90;;;;;;5031306;28;20030;-80
2022/11/11 07:05:42;;;;;;;17.00;11.55;;;9.80;99.90;;;;;;5019333;28;20022;-80
2022/11/11 07:08:11;;;;;;;15.25;11.25;;;9.80;99.90;;;;;;5022875;28;20113;-80
2022/11/11 07:10:40;;;;;;;20.55;14.02;;;9.70;99.90;;;;;;5024875;28;20108;-80
2022/11/11 07:13:06;;;;;;;18.25;12.57;;;9.70;99.90;;;;;;5011735;28;20029;-80
2022/11/11 07:15:39;;;;;;;18.33;13.65;;;9.70;99.90;;;;;;4998190;28;20096;-80
2022/11/11 07:18:05;;;;;;;20.27;11.17;;;9.70;99.90;;;;;;4995563;28;20026;-80
2022/11/11 07:20:31;;;;;;;14.55;10.85;;;9.60;99.90;;;;;;5007444;28;20272;-80
2022/11/11 07:22:57;;;;;;;13.57;10.35;;;9.60;99.90;;;;;;5015187;28;20026;-79
2022/11/11 07:25:23;;;;;;;14.75;11.52;;;9.70;99.90;;;;;;5001824;28;20489;-80
2022/11/11 07:27:49;;;;;;;15.68;11.30;;;9.70;99.90;;;;;;5032561;28;20104;-79
2022/11/11 07:30:18;;;;;;;14.20;9.80;;;9.70;99.90;;;;;;5014181;28;20049;-80
2022/11/11 07:32:49;;;;;;;15.93;11.75;;;9.70;99.90;;;;;;5035206;28;20029;-80
2022/11/11 07:35:16;;;;;;;16.98;12.75;;;9.70;99.90;;;;;;5001598;28;20034;-79
2022/11/11 07:37:43;;;;;;;15.43;11.50;;;9.60;99.90;;;;;;5018174;28;20057;-79
2022/11/11 07:40:11;;;;;;;14.80;11.50;;;9.60;99.90;;;;;;5032211;28;20423;-81
2022/11/11 07:42:38;;;;;;;19.48;14.07;;;9.70;99.90;;;;;;5022355;28;20637;-80
2022/11/11 07:45:11;;;;;;;21.33;14.77;;;9.60;99.90;;;;;;5002436;28;20073;-80
2022/11/11 07:47:37;;;;;;;27.83;17.23;;;9.60;99.90;;;;;;4997535;28;20122;-81
2022/11/11 07:50:07;;;;;;;23.13;18.67;;;9.60;99.90;;;;;;5004176;28;20018;-80
2022/11/11 07:52:34;;;;;;;24.90;17.67;;;9.50;99.90;;;;;;5016534;28;20026;-81
2022/11/11 07:55:00;;;;;;;23.60;16.98;;;9.40;99.90;;;;;;5016413;28;20363;-79
2022/11/11 07:57:26;;;;;;;22.67;15.10;;;9.40;99.90;;;;;;5010899;28;20018;-82
2022/11/11 07:59:52;;;;;;;27.00;17.20;;;9.40;99.90;;;;;;5011006;28;20485;-80
2022/11/11 08:02:18;;;;;;;23.73;17.08;;;9.40;99.90;;;;;;5032447;28;20022;-81
2022/11/11 08:04:44;;;;;;;23.02;16.67;;;9.40;99.90;;;;;;5014836;28;20080;-80
2022/11/11 08:07:10;;;;;;;21.98;15.63;;;9.30;99.90;;;;;;5012423;28;20030;-81
2022/11/11 08:09:39;;;;;;;22.85;16.23;;;9.30;99.90;;;;;;5015521;28;20021;-81
2022/11/11 08:14:50;;;;;;;20.55;14.57;;;9.30;99.90;;;;;;5033882;28;20135;-79
2022/11/11 08:17:16;;;;;;;21.70;15.68;;;9.30;99.90;;;;;;5010185;28;20022;-79
2022/11/11 08:19:43;;;;;;;19.60;13.05;;;9.40;99.90;;;;;;5033594;28;20104;-81
2022/11/11 08:22:09;;;;;;;20.83;15.63;;;9.40;99.90;;;;;;5030565;28;20029;-81
2022/11/11 08:24:47;;;;;;;19.83;15.05;;;9.40;99.90;;;;;;5033805;28;20033;-81
2022/11/11 08:27:15;;;;;;;19.50;14.23;;;9.40;99.90;;;;;;5011822;28;20041;-80
2022/11/11 08:29:41;;;;;;;18.73;14.57;;;9.50;99.90;;;;;;5016493;28;20029;-80
2022/11/11 08:32:07;;;;;;;20.65;14.43;;;9.50;99.90;;;;;;5014984;28;20033;-80
2022/11/11 08:34:33;;;;;;;17.88;13.13;;;9.50;99.90;;;;;;5016083;28;20029;-80
2022/11/11 08:37:10;;;;;;;19.60;13.88;;;9.50;99.90;;;;;;5003064;28;20022;-80
2022/11/11 08:39:35;;;;;;;17.45;13.10;;;9.50;99.90;;;;;;5011388;28;20033;-80
2022/11/11 08:42:01;;;;;;;16.83;11.88;;;9.50;99.90;;;;;;5015749;28;20523;-80
2022/11/11 08:44:27;;;;;;;19.05;12.18;;;9.60;99.90;;;;;;5002180;28;20465;-80
2022/11/11 08:46:55;;;;;;;18.45;10.65;;;9.60;99.90;;;;;;4995601;28;20068;-82
2022/11/11 08:49:21;;;;;;;14.77;10.77;;;9.70;99.90;;;;;;5014595;28;20022;-79
2022/11/11 08:51:47;;;;;;;13.43;9.57;;;9.80;99.90;;;;;;5003466;28;20326;-80
2022/11/11 08:54:13;;;;;;;14.38;9.48;;;10.00;99.90;;;;;;5018428;28;20064;-79
2022/11/11 08:56:39;;;;;;;17.42;11.20;;;10.20;99.90;;;;;;4995384;28;20385;-80
2022/11/11 08:59:05;;;;;;;14.05;9.75;;;10.30;99.90;;;;;;5026541;28;20018;-82
2022/11/11 09:01:34;;;;;;;13.50;9.82;;;10.50;99.90;;;;;;5014707;28;20021;-80
2022/11/11 09:03:59;;;;;;;15.18;9.75;;;10.60;99.90;;;;;;5031807;28;20110;-80
2022/11/11 09:06:26;;;;;;;12.70;9.10;;;10.80;99.90;;;;;;5015121;28;20057;-79
2022/11/11 09:08:52;;;;;;;12.32;8.63;;;11.00;99.90;;;;;;5003185;28;20026;-81
2022/11/11 09:11:18;;;;;;;10.68;8.45;;;11.20;99.90;;;;;;5008496;28;20018;-80
2022/11/11 09:13:46;;;;;;;11.82;8.30;;;11.50;99.90;;;;;;5000154;28;20513;-80
2022/11/11 09:16:12;;;;;;;10.25;7.43;;;11.80;99.90;;;;;;5033862;28;20060;-80
2022/11/11 09:18:39;;;;;;;9.85;7.68;;;12.10;99.90;;;;;;5032552;28;20026;-81
2022/11/11 09:21:05;;;;;;;9.35;7.22;;;12.30;99.90;;;;;;5024220;28;20034;-80
2022/11/11 09:23:31;;;;;;;11.80;7.72;;;12.60;99.90;;;;;;5012766;28;20070;-81
2022/11/11 09:26:02;;;;;;;11.10;8.43;;;12.90;99.90;;;;;;5012952;28;20045;-80
2022/11/11 09:28:32;;;;;;;10.73;7.88;;;13.20;99.90;;;;;;5018307;28;20022;-82
2022/11/11 09:31:00;;;;;;;9.95;7.40;;;13.50;99.90;;;;;;5031629;28;20428;-81
2022/11/11 09:33:28;;;;;;;8.68;6.43;;;13.80;99.90;;;;;;5030961;28;20021;-80
2022/11/11 09:35:53;;;;;;;8.80;6.80;;;14.00;99.90;;;;;;5029857;28;20029;-80
2022/11/11 09:38:19;;;;;;;11.20;6.30;;;14.10;99.90;;;;;;5027439;28;20029;-80
2022/11/11 09:41:01;;;;;;;10.55;6.20;;;14.20;99.90;;;;;;5031782;28;20021;-79
2022/11/11 09:44:08;;;;;;;10.77;7.32;;;14.50;99.90;;;;;;5028656;28;20083;-82
2022/11/11 09:47:23;;;;;;;8.30;6.28;;;14.60;99.90;;;;;;5008079;28;20025;-80
2022/11/11 09:50:23;;;;;;;9.25;6.00;;;14.70;99.90;;;;;;5029638;28;20028;-80
2022/11/11 09:52:55;;;;;;;7.78;6.25;;;14.90;99.90;;;;;;5028991;28;20444;-80
2022/11/11 09:55:41;;;;;;;8.65;5.78;;;15.00;99.90;;;;;;5030540;28;20041;-81
2022/11/11 09:58:16;;;;;;;9.10;5.93;;;15.10;99.90;;;;;;5044972;28;20064;-80
2022/11/11 10:00:45;;;;;;;8.95;6.38;;;15.10;99.90;;;;;;5029709;28;20014;-80
2022/11/11 10:03:21;;;;;;;7.85;5.35;;;15.10;99.90;;;;;;5026615;28;20025;-80
2022/11/11 10:05:57;;;;;;;8.75;6.07;;;15.10;99.90;;;;;;5027014;28;20049;-81
2022/11/11 10:08:30;;;;;;;8.45;6.10;;;15.20;99.90;;;;;;5029178;28;20473;-80
2022/11/11 10:10:59;;;;;;;8.27;5.90;;;15.30;99.90;;;;;;5028473;28;20032;-80
2022/11/11 10:13:32;;;;;;;8.00;5.03;;;15.40;99.90;;;;;;5030169;28;21208;-80
2022/11/11 10:16:25;;;;;;;8.10;5.78;;;15.50;99.90;;;;;;5012055;28;20076;-80
2022/11/11 10:19:09;;;;;;;8.77;5.82;;;15.70;99.90;;;;;;5025716;28;20118;-80
2022/11/11 10:21:39;;;;;;;9.18;5.82;;;15.80;99.90;;;;;;5009492;28;20014;-81
2022/11/11 10:24:12;;;;;;;7.15;5.45;;;15.90;99.90;;;;;;5013394;28;20557;-80
2022/11/11 10:26:44;;;;;;;;;;;16.30;99.90;;;;;;5010749;28;20018;-81
2022/11/11 10:29:22;;;;;;;7.28;4.80;;;16.80;99.90;;;;;;5013670;28;20292;-81
2022/11/11 10:32:20;;;;;;;7.07;4.63;;;17.20;99.90;;;;;;5029635;28;20377;-80
2022/11/11 10:34:46;;;;;;;6.97;4.10;;;17.50;99.90;;;;;;5011896;28;20021;-80
2022/11/11 10:37:30;;;;;;;5.72;4.00;;;17.80;99.90;;;;;;5028918;28;20374;-80
2022/11/11 10:40:34;;;;;;;6.32;4.18;;;18.00;99.90;;;;;;5010943;28;20014;-80
2022/11/11 10:42:59;;;;;;;;;;;18.10;99.90;;;;;;5027664;28;20076;-81
2022/11/11 10:45:31;;;;;;;5.50;3.60;;;18.10;99.90;;;;;;5013833;28;19905;-82
2022/11/11 10:48:06;;;;;;;6.38;4.32;;;18.30;99.90;;;;;;5025047;28;20100;-81
2022/11/11 10:50:39;;;;;;;5.68;3.40;;;18.60;99.90;;;;;;5031268;28;20052;-80
2022/11/11 10:53:33;;;;;;;5.53;3.33;;;18.80;99.90;;;;;;5013359;28;20033;-80
2022/11/11 10:56:17;;;;;;;6.93;4.45;;;19.00;99.90;;;;;;5008490;28;20050;-81
2022/11/11 10:59:01;;;;;;;6.43;3.58;;;18.90;99.90;;;;;;5011998;28;20389;-80
2022/11/11 11:01:59;;;;;;;5.65;3.45;;;19.20;99.90;;;;;;5030573;28;20025;-81
2022/11/11 11:04:47;;;;;;;5.25;3.42;;;19.60;99.90;;;;;;4999060;28;20045;-80
2022/11/11 11:07:17;;;;;;;4.80;3.28;;;20.00;99.90;;;;;;5015010;28;20013;-81
2022/11/11 11:09:55;;;;;;;5.63;3.70;;;20.30;99.90;;;;;;5033426;28;20068;-81
2022/11/11 11:12:38;;;;;;;4.45;2.80;;;20.50;99.90;;;;;;5017019;28;20090;-81
2022/11/11 11:15:22;;;;;;;4.07;3.03;;;20.70;99.90;;;;;;5027517;28;20041;-81
2022/11/11 11:18:10;;;;;;;5.40;3.08;;;20.80;99.90;;;;;;5032854;28;20451;-82
2022/11/11 11:20:35;;;;;;;5.82;2.85;;;20.90;99.90;;;;;;5033881;28;20025;-81
2022/11/11 11:23:08;;;;;;;5.40;3.00;;;21.00;99.90;;;;;;5032534;28;20565;-81
2022/11/11 11:25:34;;;;;;;5.90;3.17;;;21.10;99.90;;;;;;5033134;28;20030;-80
2022/11/11 11:28:10;;;;;;;4.90;3.35;;;21.20;99.90;;;;;;5034062;28;20075;-81
2022/11/11 11:30:38;;;;;;;4.20;2.75;;;21.20;99.90;;;;;;5034999;28;20017;-80
2022/11/11 11:33:08;;;;;;;3.60;2.40;;;21.10;99.90;;;;;;5034835;28;20401;-81
2022/11/11 11:36:03;;;;;;;4.22;1.95;;;21.30;99.90;;;;;;5031430;28;20045;-81
2022/11/11 11:38:45;;;;;;;3.45;2.47;;;21.40;99.90;;;;;;5030886;28;20042;-81
2022/11/11 11:41:11;;;;;;;5.15;2.30;;;21.40;99.90;;;;;;5032465;28;20048;-81
2022/11/11 11:43:38;;;;;;;5.00;2.88;;;21.10;99.90;;;;;;5033544;28;20477;-81
2022/11/11 11:46:29;;;;;;;4.25;2.53;;;20.60;99.90;;;;;;5035029;28;20022;-81
2022/11/11 11:49:09;;;;;;;4.18;2.40;;;20.30;99.90;;;;;;5030027;28;20018;-81
2022/11/11 11:51:57;;;;;;;3.97;2.72;;;19.70;99.90;;;;;;5032102;28;20021;-81
2022/11/11 11:54:50;;;;;;;4.30;2.78;;;19.40;99.90;;;;;;5031141;28;20030;-81
2022/11/11 11:57:22;;;;;;;;;;;19.20;99.90;;;;;;5033959;28;20029;-81
2022/11/11 11:59:47;;;;;;;6.07;3.90;;;18.70;99.90;;;;;;5033829;28;19905;-80
2022/11/11 12:03:12;;;;;;;4.80;3.33;;;18.20;99.90;;;;;;5033157;28;20116;-80
2022/11/11 12:06:01;;;;;;;5.22;3.30;;;17.50;99.90;;;;;;4991961;28;20030;-81
2022/11/11 12:08:53;;;;;;;6.53;3.35;;;16.80;99.90;;;;;;4976924;28;20050;-81
2022/11/11 12:11:30;;;;;;;6.38;4.13;;;16.20;99.90;;;;;;5025501;28;20034;-80
2022/11/11 12:14:05;;;;;;;5.93;3.63;;;15.70;99.90;;;;;;5031053;28;20064;-80
2022/11/11 12:16:42;;;;;;;4.72;3.20;;;15.30;99.90;;;;;;5032784;28;20021;-81
2022/11/11 12:19:45;;;;;;;4.97;2.88;;;15.20;99.90;;;;;;5030378;28;20508;-80
2022/11/11 12:22:29;;;;;;;3.97;2.53;;;15.20;99.90;;;;;;5033922;28;20381;-80
2022/11/11 12:25:03;;;;;;;4.60;2.80;;;15.20;99.90;;;;;;5033371;28;20021;-81
2022/11/11 12:27:53;;;;;;;5.47;3.55;;;15.30;99.90;;;;;;5023597;28;20029;-81
2022/11/11 12:30:27;;;;;;;5.10;3.50;;;15.30;99.90;;;;;;5024056;28;20026;-80
2022/11/11 12:33:03;;;;;;;3.80;2.75;;;15.30;99.90;;;;;;5030556;28;20467;-80
2022/11/11 12:36:02;;;;;;;4.40;3.17;;;15.50;99.90;;;;;;5025804;28;20041;-81
2022/11/11 12:39:03;;;;;;;3.65;2.42;;;15.80;99.90;;;;;;5032266;28;20104;-81
2022/11/11 12:42:28;;;;;;;5.63;2.88;;;15.90;99.90;;;;;;5029077;28;20120;-82
2022/11/11 12:45:23;;;;;;;4.25;3.15;;;16.00;99.90;;;;;;5013954;28;20036;-80
2022/11/11 12:48:23;;;;;;;3.67;2.50;;;16.10;99.90;;;;;;5031201;28;20444;-80
2022/11/11 12:50:57;;;;;;;4.07;2.22;;;16.10;99.90;;;;;;5029453;28;20021;-82
2022/11/11 12:53:43;;;;;;;4.35;2.65;;;16.30;99.90;;;;;;5031286;28;20025;-81
2022/11/11 12:56:20;;;;;;;6.22;3.00;;;16.30;99.90;;;;;;5023360;28;20385;-80
2022/11/11 12:59:29;;;;;;;4.88;2.90;;;16.20;99.90;;;;;;5023744;28;20113;-81
2022/11/11 13:02:10;;;;;;;3.95;2.13;;;16.20;99.90;;;;;;5030150;28;20085;-81
2022/11/11 13:04:42;;;;;;;4.05;2.38;;;16.40;99.90;;;;;;5030373;28;20067;-80
2022/11/11 13:07:13;;;;;;;3.58;2.63;;;16.50;99.90;;;;;;5031866;28;20053;-81
2022/11/11 13:09:56;;;;;;;3.10;2.10;;;16.50;99.90;;;;;;5031258;28;20408;-80
2022/11/11 13:12:41;;;;;;;5.22;2.45;;;16.70;99.90;;;;;;5025954;28;20022;-81
2022/11/11 13:15:23;;;;;;;3.63;1.80;;;16.70;99.90;;;;;;5029172;28;20045;-81
2022/11/11 13:18:04;;;;;;;3.63;1.80;;;16.70;99.90;;;;;;5029767;28;20100;-80
2022/11/11 13:20:38;;;;;;;2.92;1.27;;;16.70;99.90;;;;;;5007937;28;20029;-80
2022/11/11 13:23:13;;;;;;;5.97;1.80;;;16.80;99.90;;;;;;5032986;28;20116;-80
2022/11/11 13:25:56;;;;;;;2.88;1.98;;;16.70;99.90;;;;;;5030756;28;20025;-81
2022/11/11 13:28:41;;;;;;;3.78;2.00;;;16.50;99.90;;;;;;5023806;28;20021;-82
2022/11/11 13:31:14;;;;;;;3.08;1.83;;;16.30;99.90;;;;;;5029478;28;20053;-81
2022/11/11 13:33:47;;;;;;;2.72;1.85;;;16.00;99.90;;;;;;5015312;28;20037;-81
2022/11/11 13:36:22;;;;;;;4.20;1.65;;;15.80;99.90;;;;;;5031620;28;20022;-80
2022/11/11 13:39:09;;;;;;;3.08;1.73;;;15.60;99.90;;;;;;5015525;28;20064;-81
2022/11/11 13:41:41;;;;;;;2.83;1.63;;;15.50;99.90;;;;;;5030811;28;20127;-81
2022/11/11 13:44:08;;;;;;;2.47;1.67;;;15.40;99.90;;;;;;5028502;28;20083;-80
2022/11/11 13:46:34;;;;;;;1.80;1.30;;;15.30;99.90;;;;;;5023666;28;20022;-80
2022/11/11 13:49:02;;;;;;;2.70;1.20;;;15.30;99.90;;;;;;5023345;28;20022;-79
2022/11/11 13:51:44;;;;;;;1.83;1.08;;;15.20;99.90;;;;;;5023596;28;20043;-81
2022/11/11 13:54:33;;;;;;;3.17;1.50;;;15.20;99.90;;;;;;5018492;28;20030;-80
2022/11/11 13:57:21;;;;;;;2.97;1.60;;;15.20;99.90;;;;;;5012780;28;20052;-80
2022/11/11 14:00:30;;;;;;;4.05;1.95;;;15.10;99.90;;;;;;5011542;28;20099;-81
2022/11/11 14:03:56;;;;;;;2.75;1.15;;;15.00;99.90;;;;;;4935098;29;20027;-79
2022/11/11 14:06:52;;;;;;;2.95;1.60;;;15.00;99.90;;;;;;4933063;28;20047;-80
2022/11/11 14:09:53;;;;;;;1.85;1.20;;;15.00;99.90;;;;;;5023517;28;20571;-80
2022/11/11 14:12:36;;;;;;;3.58;1.10;;;15.00;99.90;;;;;;5017834;28;20737;-84
2022/11/11 14:15:06;;;;;;;2.30;1.27;;;14.90;99.90;;;;;;4989305;28;20529;-80
2022/11/11 14:17:55;;;;;;;2.92;1.08;;;14.90;99.90;;;;;;4999509;28;20041;-80